RYR34 EIKY-EINN

Flight info

Callsign RYR34
Flight time 0h 16m
Altitude 11000
Route DCT FOY DCT SHA DCT
Aircraft A320/M-SDE3FGHIRWY/LB1

Departure

Time 2026-04-20 15:58
Airport Kerry Airport (EIKY)

Arrival

Time 2026-04-20 16:14
Airport Shannon Airport (EINN)
Time Latitude Longitude Altitude Speed Heading
2026-04-20 15:38 52.18109 -9.53586 92 ft 0 kts 335°
2026-04-20 15:55 52.18113 -9.53588 92 ft 2 kts 350°
2026-04-20 15:55 52.18119 -9.53574 93 ft 1 kts 71°
2026-04-20 15:55 52.18114 -9.53550 93 ft 2 kts 136°
2026-04-20 15:56 52.18086 -9.53549 95 ft 6 kts 208°
2026-04-20 15:56 52.18033 -9.53595 93 ft 11 kts 208°
2026-04-20 15:56 52.17944 -9.53603 92 ft 16 kts 160°
2026-04-20 15:56 52.17855 -9.53509 92 ft 6 kts 91°
2026-04-20 15:57 52.17856 -9.53501 95 ft 0 kts 77°
2026-04-20 15:57 52.17857 -9.53497 92 ft 2 kts 75°
2026-04-20 15:57 52.17916 -9.53201 95 ft 69 kts 71°
2026-04-20 15:57 52.18135 -9.52076 112 ft 133 kts 69°
2026-04-20 15:58 52.18409 -9.50562 722 ft 140 kts 75°
2026-04-20 15:58 52.18723 -9.49027 1470 ft 144 kts 76°
2026-04-20 15:58 52.19178 -9.47556 2272 ft 152 kts 50°
2026-04-20 15:58 52.20135 -9.46674 3053 ft 165 kts 28°
2026-04-20 15:59 52.21211 -9.45916 3793 ft 173 kts 27°
2026-04-20 15:59 52.22359 -9.45085 4486 ft 188 kts 27°
2026-04-20 15:59 52.23582 -9.44193 5161 ft 203 kts 30°
2026-04-20 15:59 52.24925 -9.43209 5848 ft 221 kts 28°
2026-04-20 16:00 52.26387 -9.42130 6557 ft 241 kts 28°
2026-04-20 16:00 52.27985 -9.40950 7222 ft 262 kts 28°
2026-04-20 16:00 52.29684 -9.39700 7876 ft 271 kts 27°
2026-04-20 16:00 52.31415 -9.38422 8550 ft 275 kts 26°
2026-04-20 16:01 52.33168 -9.37122 9237 ft 278 kts 26°
2026-04-20 16:01 52.34943 -9.35803 9934 ft 281 kts 26°
2026-04-20 16:01 52.36752 -9.34455 10595 ft 291 kts 25°
2026-04-20 16:01 52.38657 -9.33030 11088 ft 312 kts 25°
2026-04-20 16:02 52.40652 -9.31539 11198 ft 315 kts 25°
2026-04-20 16:02 52.42622 -9.30064 11233 ft 309 kts 25°
2026-04-20 16:02 52.44568 -9.28606 11233 ft 306 kts 25°
2026-04-20 16:02 52.45856 -9.27688 11231 ft 302 kts 20°
2026-04-20 16:03 52.48463 -9.26253 10465 ft 305 kts 18°
2026-04-20 16:03 52.50530 -9.25181 9588 ft 317 kts 18°
2026-04-20 16:03 52.52659 -9.24097 8740 ft 324 kts 19°
2026-04-20 16:03 52.54830 -9.22973 7920 ft 328 kts 22°
2026-04-20 16:04 52.56779 -9.21078 7095 ft 328 kts 42°
2026-04-20 16:04 52.57904 -9.19337 6394 ft 332 kts 49°
2026-04-20 16:04 52.59416 -9.16399 4962 ft 344 kts 54°
2026-04-20 16:04 52.60843 -9.13164 3817 ft 350 kts 57°
2026-04-20 16:05 52.62204 -9.09943 3352 ft 334 kts 57°
2026-04-20 16:05 52.63463 -9.06864 3156 ft 314 kts 58°
2026-04-20 16:05 52.64714 -9.04043 3014 ft 296 kts 54°
2026-04-20 16:05 52.65935 -9.01498 3005 ft 277 kts 54°
2026-04-20 16:06 52.67100 -8.99059 3005 ft 259 kts 53°
2026-04-20 16:06 52.68120 -8.96787 3006 ft 241 kts 62°
2026-04-20 16:06 52.68641 -8.94296 3010 ft 222 kts 84°
2026-04-20 16:06 52.68549 -8.91865 3007 ft 206 kts 105°
2026-04-20 16:07 52.67958 -8.89809 3007 ft 193 kts 125°
2026-04-20 16:07 52.67016 -8.88290 3022 ft 201 kts 144°
2026-04-20 16:07 52.65678 -8.87318 3020 ft 217 kts 166°
2026-04-20 16:07 52.64113 -8.87278 3016 ft 243 kts 189°
2026-04-20 16:08 52.62525 -8.88435 3011 ft 257 kts 216°
2026-04-20 16:08 52.61382 -8.90719 3010 ft 264 kts 243°
2026-04-20 16:08 52.60954 -8.93656 3015 ft 267 kts 263°
2026-04-20 16:08 52.60791 -8.96710 3010 ft 268 kts 263°
2026-04-20 16:09 52.60631 -8.99765 3012 ft 267 kts 263°
2026-04-20 16:09 52.60239 -9.02730 3010 ft 265 kts 250°
2026-04-20 16:09 52.59510 -9.05513 3010 ft 264 kts 239°
2026-04-20 16:09 52.58611 -9.08166 3008 ft 265 kts 238°
2026-04-20 16:10 52.57707 -9.10818 3008 ft 266 kts 241°
2026-04-20 16:10 52.57318 -9.13739 3004 ft 260 kts 276°
2026-04-20 16:10 52.58008 -9.16338 3008 ft 247 kts 315°
2026-04-20 16:10 52.59433 -9.17610 3009 ft 236 kts 355°
2026-04-20 16:11 52.60968 -9.17113 3005 ft 225 kts 37°
2026-04-20 16:11 52.61887 -9.15153 2912 ft 216 kts 77°
2026-04-20 16:11 52.62103 -9.12716 2681 ft 214 kts 85°
2026-04-20 16:11 52.62333 -9.10286 2435 ft 216 kts 77°
2026-04-20 16:12 52.62947 -9.08021 2164 ft 219 kts 60°
2026-04-20 16:12 52.63824 -9.05975 1875 ft 219 kts 55°
2026-04-20 16:12 52.64756 -9.03999 1571 ft 218 kts 55°
2026-04-20 16:12 52.65684 -9.02046 1287 ft 213 kts 55°
2026-04-20 16:13 52.66558 -9.00201 992 ft 196 kts 54°
2026-04-20 16:13 52.67353 -8.98520 746 ft 177 kts 56°
2026-04-20 16:13 52.68049 -8.97050 510 ft 147 kts 55°
2026-04-20 16:13 52.68644 -8.95790 321 ft 134 kts 57°
2026-04-20 16:14 52.69197 -8.94623 151 ft 127 kts 59°
2026-04-20 16:14 52.69726 -8.93504 27 ft 112 kts 56°
2026-04-20 16:14 52.70096 -8.92693 18 ft 64 kts 52°
2026-04-20 16:14 52.70295 -8.92254 17 ft 44 kts 51°
2026-04-20 16:15 52.70488 -8.91843 13 ft 47 kts 54°
2026-04-20 16:15 52.70683 -8.91397 8 ft 50 kts 45°
2026-04-20 16:15 52.70743 -8.91171 8 ft 8 kts 153°
2026-04-20 16:15 52.70678 -8.91149 9 ft 12 kts 168°
2026-04-20 16:16 52.69371 -8.92176 22 ft 0 kts 186°